createdAt,value
2023-01-08T12:02:02.317Z,13.60
2023-01-08T12:03:39.220Z,27.60
2023-01-08T12:05:32.532Z,29.20
2023-01-08T12:07:28.879Z,23.00
2023-01-08T12:09:38.010Z,23.60
2023-01-08T12:11:25.375Z,22.40
2023-01-08T12:13:24.878Z,23.60
2023-01-08T12:15:24.021Z,25.00
2023-01-08T12:17:19.457Z,25.60
2023-01-08T12:19:20.416Z,25.40
2023-01-08T12:21:01.382Z,25.40
2023-01-08T12:22:49.457Z,21.40
2023-01-08T12:25:13.258Z,22.00
2023-01-08T12:27:00.283Z,22.60
2023-01-08T12:29:10.552Z,21.60
2023-01-08T12:31:01.044Z,21.80
2023-01-08T12:32:44.733Z,22.60
2023-01-08T12:34:19.593Z,20.20
2023-01-08T12:35:52.972Z,20.60
2023-01-08T12:37:27.743Z,23.60
2023-01-08T12:39:02.910Z,20.00
2023-01-08T12:40:48.495Z,19.40
2023-01-08T12:42:24.628Z,22.00
2023-01-08T12:44:06.682Z,20.40
2023-01-08T12:45:43.909Z,23.60
2023-01-08T12:47:17.164Z,20.40
2023-01-08T12:48:51.904Z,18.80
2023-01-08T12:50:35.155Z,23.40
2023-01-08T12:52:18.046Z,19.20
2023-01-08T12:53:58.637Z,22.80
2023-01-08T12:55:56.357Z,24.20
2023-01-08T12:57:34.856Z,24.40
2023-01-08T12:59:24.140Z,21.40
2023-01-08T13:01:12.100Z,21.00
2023-01-08T13:03:01.399Z,19.00
2023-01-08T13:04:46.545Z,22.40
2023-01-08T13:06:19.014Z,18.80
2023-01-08T13:07:58.958Z,24.40
2023-01-08T13:09:31.103Z,20.40
2023-01-08T13:11:03.113Z,26.00
2023-01-08T13:12:36.745Z,19.80
2023-01-08T13:14:10.298Z,22.60
2023-01-08T13:15:42.217Z,20.80
2023-01-08T13:17:19.575Z,24.40
2023-01-08T13:19:04.420Z,23.00
2023-01-08T13:20:36.283Z,19.40
2023-01-08T13:22:33.427Z,21.40
2023-01-08T13:24:34.819Z,15.40
2023-01-08T13:26:06.899Z,20.00
2023-01-08T13:27:38.776Z,21.00
2023-01-08T13:29:27.138Z,15.00
2023-01-08T13:31:09.069Z,23.60
2023-01-08T13:32:45.937Z,23.60
2023-01-08T13:34:42.448Z,24.40
2023-01-08T13:36:21.514Z,22.20
2023-01-08T13:38:06.708Z,25.60
2023-01-08T13:39:39.130Z,24.60
2023-01-08T13:41:26.215Z,16.40
2023-01-08T13:43:00.648Z,24.40
2023-01-08T13:44:36.083Z,23.20
2023-01-08T13:46:15.895Z,17.00
2023-01-08T13:47:47.808Z,20.20
2023-01-08T13:49:23.694Z,24.60
2023-01-08T13:50:55.563Z,20.40
2023-01-08T13:52:30.096Z,22.60
2023-01-08T13:54:16.373Z,24.60
2023-01-08T13:56:07.537Z,20.00
2023-01-08T13:57:41.650Z,27.40
2023-01-08T13:59:31.348Z,25.80
2023-01-08T14:01:03.413Z,20.40
2023-01-08T14:02:50.440Z,24.80
2023-01-08T14:04:25.438Z,23.00
2023-01-08T14:06:31.524Z,25.80
2023-01-08T14:08:03.451Z,21.20
2023-01-08T14:09:35.277Z,21.20
2023-01-08T14:11:07.136Z,25.00
2023-01-08T14:12:39.047Z,25.60
2023-01-08T14:14:21.279Z,26.40
2023-01-08T14:15:53.332Z,21.60
2023-01-08T14:17:29.083Z,27.60
2023-01-08T14:19:01.506Z,32.20
2023-01-08T14:20:37.566Z,34.20
2023-01-08T14:22:14.483Z,48.00
2023-01-08T14:23:47.167Z,51.50
2023-01-08T14:25:20.140Z,55.00
2023-01-08T14:26:58.861Z,63.75
2023-01-08T14:28:30.739Z,68.75
2023-01-08T14:30:02.628Z,71.75
2023-01-08T14:31:34.570Z,91.50
2023-01-08T14:33:11.014Z,82.75
2023-01-08T14:34:42.895Z,102.40
2023-01-08T14:36:14.803Z,110.40
2023-01-08T14:37:46.616Z,108.25
2023-01-08T14:39:27.054Z,113.75
2023-01-08T14:41:54.786Z,114.25
2023-01-08T14:43:27.171Z,118.50
2023-01-08T14:45:04.595Z,132.25
2023-01-08T14:46:36.494Z,127.00
2023-01-08T14:48:13.889Z,135.50
2023-01-08T14:49:52.953Z,142.50
2023-01-08T14:51:26.410Z,147.75
2023-01-08T14:53:00.526Z,142.00
2023-01-08T14:54:34.281Z,147.25
2023-01-08T14:56:06.473Z,129.25
2023-01-08T14:57:38.361Z,141.75
2023-01-08T14:59:10.488Z,161.75
2023-01-08T15:00:42.376Z,128.00
2023-01-08T15:02:31.246Z,130.50
2023-01-08T15:04:17.424Z,138.50
2023-01-08T15:05:49.796Z,139.50
2023-01-08T15:07:24.251Z,129.75
2023-01-08T15:08:56.407Z,104.25
2023-01-08T15:10:34.291Z,99.00
2023-01-08T15:12:07.207Z,85.25
2023-01-08T15:13:39.126Z,79.00
2023-01-08T15:15:22.501Z,80.00
2023-01-08T15:16:59.596Z,80.50
2023-01-08T15:18:31.620Z,81.75
2023-01-08T15:20:03.637Z,90.00
2023-01-08T15:21:35.546Z,54.75
2023-01-08T15:23:15.488Z,86.25
2023-01-08T15:24:55.776Z,91.75
2023-01-08T15:26:27.812Z,98.40
2023-01-08T15:28:01.052Z,85.75
2023-01-08T15:29:37.244Z,85.50
2023-01-08T15:31:09.141Z,88.75
2023-01-08T15:32:41.217Z,78.00
2023-01-08T15:34:13.019Z,71.75
2023-01-08T15:35:44.904Z,71.25
2023-01-08T15:37:16.987Z,68.00
2023-01-08T15:38:49.425Z,69.50
2023-01-08T15:40:21.256Z,64.75
2023-01-08T15:42:11.533Z,63.75
2023-01-08T15:43:43.414Z,63.75
2023-01-08T15:45:16.907Z,58.50
2023-01-08T15:46:49.412Z,58.00
2023-01-08T15:48:21.267Z,61.00
2023-01-08T15:49:54.706Z,64.25
2023-01-08T15:51:26.895Z,59.75
2023-01-08T15:53:01.193Z,60.50
2023-01-08T15:54:33.118Z,67.25
2023-01-08T15:56:05.167Z,60.25
2023-01-08T15:57:38.613Z,60.25
2023-01-08T15:59:12.344Z,66.00
2023-01-08T16:00:45.110Z,57.50
2023-01-08T16:02:17.131Z,56.25
2023-01-08T16:03:49.895Z,53.50
2023-01-08T16:05:22.997Z,56.25
2023-01-08T16:06:54.925Z,58.75
2023-01-08T16:08:26.854Z,65.50
2023-01-08T16:09:58.738Z,68.00
2023-01-08T16:11:30.576Z,71.75
2023-01-08T16:13:02.620Z,74.00
2023-01-08T16:14:38.023Z,69.50
2023-01-08T16:16:10.681Z,81.00
2023-01-08T16:17:42.952Z,89.25
2023-01-08T16:19:14.851Z,90.50
2023-01-08T16:20:46.728Z,93.00
2023-01-08T16:22:18.638Z,94.00
2023-01-08T16:23:50.603Z,95.00
2023-01-08T16:25:23.566Z,98.00
2023-01-08T16:26:55.478Z,97.00
2023-01-08T16:28:27.352Z,106.60
2023-01-08T16:29:59.413Z,94.20
2023-01-08T16:31:31.331Z,105.60
2023-01-08T16:33:03.263Z,119.00
2023-01-08T16:34:35.254Z,115.00
2023-01-08T16:36:08.358Z,121.00
2023-01-08T16:37:40.260Z,132.75
2023-01-08T16:39:12.111Z,125.00
2023-01-08T16:40:43.999Z,126.50
2023-01-08T16:42:15.799Z,129.75
2023-01-08T16:43:47.812Z,131.25
2023-01-08T16:45:19.935Z,131.25
2023-01-08T16:46:51.897Z,123.25
2023-01-08T16:48:23.816Z,129.00
2023-01-08T16:49:55.808Z,127.50
2023-01-08T16:51:28.051Z,130.50
2023-01-08T16:52:59.988Z,125.25
2023-01-08T16:54:33.168Z,128.25
2023-01-08T16:56:05.418Z,122.00
2023-01-08T16:57:37.520Z,137.75
2023-01-08T16:59:22.392Z,133.25
2023-01-08T17:00:55.999Z,125.75
2023-01-08T17:02:28.004Z,120.50
2023-01-08T17:04:00.672Z,109.50
2023-01-08T17:05:32.944Z,120.25
2023-01-08T17:07:04.955Z,123.50
2023-01-08T17:08:43.330Z,129.25
2023-01-08T17:10:15.424Z,135.00
2023-01-08T17:11:48.000Z,139.75
2023-01-08T17:13:19.888Z,135.75
2023-01-08T17:14:51.912Z,132.25
2023-01-08T17:16:23.942Z,130.00
2023-01-08T17:17:55.963Z,138.00
2023-01-08T17:19:27.978Z,131.00
2023-01-08T17:21:00.185Z,146.25
2023-01-08T17:22:32.065Z,133.75
2023-01-08T17:24:04.415Z,132.00
2023-01-08T17:25:40.591Z,139.50
2023-01-08T17:27:12.534Z,136.75
2023-01-08T17:28:45.237Z,132.00
2023-01-08T17:30:17.337Z,131.75
2023-01-08T17:31:49.287Z,138.75
2023-01-08T17:33:21.333Z,135.50
2023-01-08T17:34:53.503Z,131.75
2023-01-08T17:36:26.408Z,126.50
2023-01-08T17:37:58.204Z,122.75
2023-01-08T17:39:30.127Z,142.75
2023-01-08T17:41:02.721Z,132.25
2023-01-08T17:42:34.660Z,117.00
2023-01-08T17:44:07.203Z,125.75
2023-01-08T17:45:39.335Z,116.75
2023-01-08T17:47:12.322Z,107.20
2023-01-08T17:48:44.992Z,108.40
2023-01-08T17:50:17.788Z,117.00
2023-01-08T17:51:50.407Z,110.00
2023-01-08T17:53:22.404Z,120.50
2023-01-08T17:54:54.453Z,121.25
2023-01-08T17:56:26.383Z,119.25
2023-01-08T17:57:58.496Z,113.75
2023-01-08T17:59:31.274Z,115.25
2023-01-08T18:01:03.337Z,131.50
2023-01-08T18:02:35.633Z,122.50
2023-01-08T18:04:07.713Z,114.75
2023-01-08T18:05:39.609Z,123.75
2023-01-08T18:07:11.487Z,124.75
2023-01-08T18:08:43.624Z,109.75
2023-01-08T18:10:15.991Z,119.00
2023-01-08T18:11:47.953Z,116.25
2023-01-08T18:13:20.031Z,113.25
2023-01-08T18:14:51.972Z,125.25
2023-01-08T18:16:24.301Z,109.75
2023-01-08T18:17:56.219Z,111.00
2023-01-08T18:19:28.093Z,108.80
2023-01-08T18:20:59.962Z,136.25
2023-01-08T18:22:31.875Z,124.50
2023-01-08T18:24:03.869Z,129.75
2023-01-08T18:25:40.255Z,106.20
2023-01-08T18:27:12.198Z,104.20
2023-01-08T18:28:44.079Z,101.40
2023-01-08T18:30:16.082Z,104.60
2023-01-08T18:31:48.364Z,97.00
2023-01-08T18:33:20.370Z,91.20
2023-01-08T18:34:53.110Z,96.40
2023-01-08T18:36:24.934Z,84.40
2023-01-08T18:37:57.240Z,111.40
2023-01-08T18:39:30.059Z,109.80
2023-01-08T18:41:02.002Z,110.20
2023-01-08T18:42:34.178Z,116.25
2023-01-08T18:44:06.905Z,122.00
2023-01-08T18:45:39.658Z,111.00
2023-01-08T18:47:12.644Z,112.50
2023-01-08T18:48:44.535Z,112.25
2023-01-08T18:50:16.759Z,110.75
2023-01-08T18:51:48.660Z,101.80
2023-01-08T18:53:20.558Z,112.75
2023-01-08T18:54:53.719Z,111.25
2023-01-08T18:56:30.334Z,116.75
2023-01-08T18:58:03.439Z,120.00
2023-01-08T18:59:35.373Z,123.00
2023-01-08T19:01:07.461Z,118.00
2023-01-08T19:02:39.969Z,123.50
2023-01-08T19:04:16.144Z,155.75
2023-01-08T19:05:48.022Z,146.75
2023-01-08T19:07:20.114Z,141.00
2023-01-08T19:08:52.077Z,133.25
2023-01-08T19:10:24.058Z,131.00
2023-01-08T19:11:55.933Z,146.00
2023-01-08T19:13:27.741Z,127.75
2023-01-08T19:14:59.635Z,138.75
2023-01-08T19:16:31.563Z,135.50
2023-01-08T19:18:05.012Z,130.00
2023-01-08T19:19:37.361Z,120.25
2023-01-08T19:21:09.810Z,138.50
2023-01-08T19:22:41.673Z,124.50
2023-01-08T19:24:13.680Z,128.50
2023-01-08T19:25:45.637Z,123.00
2023-01-08T19:27:17.659Z,115.50
2023-01-08T19:28:49.491Z,124.25
2023-01-08T19:30:21.421Z,111.00
2023-01-08T19:31:53.344Z,117.25
2023-01-08T19:33:25.509Z,112.00
2023-01-08T19:34:57.411Z,115.75
2023-01-08T19:36:29.316Z,107.80
2023-01-08T19:38:01.356Z,94.80
2023-01-08T19:39:33.281Z,99.00
2023-01-08T19:41:05.670Z,102.60
2023-01-08T19:42:56.095Z,91.75
2023-01-08T19:44:28.056Z,94.40
2023-01-08T19:46:08.737Z,96.20
2023-01-08T19:47:41.082Z,92.00
2023-01-08T19:49:12.975Z,81.75
2023-01-08T19:50:47.220Z,87.25
2023-01-08T19:52:19.963Z,90.25
2023-01-08T19:53:52.673Z,86.75
2023-01-08T19:55:24.538Z,81.00
2023-01-08T19:56:56.449Z,80.00
2023-01-08T19:58:29.565Z,82.50
2023-01-08T20:00:01.493Z,77.75
2023-01-08T20:01:43.606Z,68.75
2023-01-08T20:03:19.751Z,73.00
2023-01-08T20:04:52.027Z,70.25
2023-01-08T20:06:25.114Z,72.50
2023-01-08T20:07:56.948Z,62.00
2023-01-08T20:09:29.199Z,64.75
2023-01-08T20:11:19.448Z,65.25
2023-01-08T20:12:51.398Z,58.25
2023-01-08T20:14:23.295Z,61.25
2023-01-08T20:15:57.096Z,60.00
2023-01-08T20:17:29.285Z,56.25
2023-01-08T20:19:04.774Z,54.00
2023-01-08T20:20:36.664Z,55.75
2023-01-08T20:22:08.621Z,55.00
2023-01-08T20:23:40.752Z,61.50
2023-01-08T20:25:12.602Z,48.25
2023-01-08T20:26:44.809Z,54.50
2023-01-08T20:28:16.712Z,52.25
2023-01-08T20:29:48.671Z,51.50
2023-01-08T20:31:21.137Z,51.25
2023-01-08T20:32:53.056Z,49.75
2023-01-08T20:34:25.000Z,50.20
2023-01-08T20:35:56.929Z,52.00
2023-01-08T20:37:32.396Z,57.25
2023-01-08T20:39:09.507Z,68.50
2023-01-08T20:40:41.699Z,74.75
2023-01-08T20:42:17.673Z,71.75
2023-01-08T20:43:56.298Z,77.25
2023-01-08T20:45:28.213Z,85.25
2023-01-08T20:47:00.796Z,77.75
2023-01-08T20:48:37.054Z,70.75
2023-01-08T20:50:19.353Z,77.50
2023-01-08T20:51:58.525Z,77.75
2023-01-08T20:53:31.616Z,89.00
2023-01-08T20:55:04.219Z,103.00
2023-01-08T20:56:36.095Z,98.00
2023-01-08T20:58:07.931Z,110.25
2023-01-08T20:59:39.835Z,102.00
2023-01-08T21:01:19.964Z,95.00
2023-01-08T21:02:51.932Z,107.25
2023-01-08T21:04:23.969Z,97.25
2023-01-08T21:05:55.867Z,111.75
2023-01-08T21:07:30.077Z,114.75
2023-01-08T21:09:08.953Z,119.50
2023-01-08T21:10:41.046Z,99.40
2023-01-08T21:12:13.210Z,109.75
2023-01-08T21:13:45.255Z,108.20
2023-01-08T21:15:17.434Z,105.20
2023-01-08T21:16:49.494Z,92.80
2023-01-08T21:18:23.412Z,95.80
2023-01-08T21:19:55.364Z,107.40
2023-01-08T21:21:33.156Z,97.00
2023-01-08T21:23:05.103Z,104.00
2023-01-08T21:24:37.341Z,108.40
2023-01-08T21:26:10.283Z,91.40
2023-01-08T21:27:42.141Z,95.60
2023-01-08T21:29:14.864Z,100.50
2023-01-08T21:30:46.792Z,98.50
2023-01-08T21:32:18.818Z,83.50
2023-01-08T21:33:51.512Z,94.60
2023-01-08T21:35:25.568Z,95.60
2023-01-08T21:36:57.564Z,91.00
2023-01-08T21:38:32.914Z,85.00
2023-01-08T21:40:05.408Z,109.40
2023-01-08T21:41:55.767Z,101.40
2023-01-08T21:43:46.507Z,95.60
2023-01-08T21:45:27.842Z,103.20
2023-01-08T21:47:00.538Z,105.20
2023-01-08T21:48:32.497Z,113.75
2023-01-08T21:50:04.653Z,117.00
2023-01-08T21:51:54.848Z,111.25
2023-01-08T21:53:34.190Z,107.50
2023-01-08T21:55:08.346Z,115.50
2023-01-08T21:56:40.775Z,114.00
2023-01-08T21:58:12.597Z,118.75
2023-01-08T21:59:44.525Z,113.00
2023-01-08T22:01:16.544Z,112.00
2023-01-08T22:02:48.431Z,112.25
2023-01-08T22:04:20.330Z,115.25
2023-01-08T22:06:03.460Z,108.75
2023-01-08T22:07:35.509Z,104.40
2023-01-08T22:09:07.419Z,97.20
2023-01-08T22:10:40.536Z,96.25
2023-01-08T22:12:14.219Z,112.75
2023-01-08T22:13:46.296Z,115.75
2023-01-08T22:15:19.546Z,123.50
2023-01-08T22:16:51.491Z,115.25
2023-01-08T22:18:23.696Z,113.00
2023-01-08T22:19:55.983Z,126.50
2023-01-08T22:21:27.861Z,118.25
2023-01-08T22:22:59.867Z,124.00
2023-01-08T22:24:31.822Z,120.00
2023-01-08T22:26:05.242Z,121.00
2023-01-08T22:27:37.209Z,120.50
2023-01-08T22:29:09.124Z,125.75
2023-01-08T22:30:41.063Z,125.75
2023-01-08T22:32:13.019Z,122.00
2023-01-08T22:33:44.945Z,112.25
2023-01-08T22:35:16.941Z,127.25
2023-01-08T22:36:52.450Z,118.50
2023-01-08T22:38:24.275Z,118.50
2023-01-08T22:39:56.497Z,111.75
2023-01-08T22:41:28.474Z,103.25
2023-01-08T22:43:00.471Z,106.75
2023-01-08T22:44:32.372Z,112.50
2023-01-08T22:46:04.319Z,114.25
2023-01-08T22:47:36.402Z,111.50
2023-01-08T22:49:10.780Z,110.75
2023-01-08T22:50:42.676Z,107.60
2023-01-08T22:52:14.788Z,100.60
2023-01-08T22:53:46.657Z,108.60
2023-01-08T22:55:18.542Z,106.80
2023-01-08T22:56:50.516Z,101.80
2023-01-08T22:58:22.522Z,104.40
2023-01-08T22:59:54.430Z,93.80
2023-01-08T23:01:27.694Z,92.00
2023-01-08T23:02:59.736Z,90.60
2023-01-08T23:04:31.713Z,88.50
2023-01-08T23:06:03.821Z,93.75
2023-01-08T23:07:35.772Z,91.25
2023-01-08T23:09:07.877Z,89.50
2023-01-08T23:10:39.846Z,83.50
2023-01-08T23:12:11.807Z,79.00
2023-01-08T23:13:43.880Z,83.50
2023-01-08T23:15:15.953Z,84.75
2023-01-08T23:16:48.043Z,66.00
2023-01-08T23:18:19.953Z,84.50
2023-01-08T23:19:51.824Z,83.00
2023-01-08T23:21:25.188Z,80.50
2023-01-08T23:22:57.180Z,71.00
2023-01-08T23:24:30.767Z,73.75
2023-01-08T23:26:07.641Z,67.00
2023-01-08T23:27:39.546Z,78.25
2023-01-08T23:29:11.633Z,68.75
2023-01-08T23:30:43.487Z,63.00
2023-01-08T23:32:15.537Z,64.50
2023-01-08T23:33:47.653Z,66.00
